Time;durP1;ratioP1;P1;durP2;ratioP2;P2;SDS_P1;SDS_P2;PMS_P1;PMS_P2;Temp;Humidity;BMP_temperature;BMP_pressure;BME280_temperature;BME280_humidity;BME280_pressure;Samples;Min_cycle;Max_cycle;Signal;HPM_P1;HPM_P2
2022/12/05 00:00:33;;;;;;;8.70;5.95;;;;;;;18.44;53.17;96630.06;13248896;22;20429;-45
2022/12/05 00:05:52;;;;;;;8.30;5.68;;;;;;;18.43;53.31;96612.31;13249824;22;20066;-46
2022/12/05 00:11:14;;;;;;;8.07;5.53;;;;;;;18.42;53.40;96616.09;13248726;22;20490;-44
2022/12/05 00:16:35;;;;;;;8.52;5.82;;;;;;;18.41;53.17;96607.22;13249601;22;20390;-46
2022/12/05 00:21:56;;;;;;;8.23;5.78;;;;;;;18.41;53.22;96609.13;13270478;22;20014;-45
2022/12/05 00:27:16;;;;;;;7.35;5.40;;;;;;;18.40;53.07;96612.94;13248721;22;20017;-46
2022/12/05 00:32:35;;;;;;;6.47;5.10;;;;;;;18.39;53.18;96622.94;13249323;22;20010;-46
2022/12/05 00:37:55;;;;;;;7.72;5.13;;;;;;;18.37;53.05;96622.47;13249072;22;20022;-45
2022/12/05 00:43:14;;;;;;;7.22;5.25;;;;;;;18.37;53.26;96634.03;13249065;22;20062;-47
2022/12/05 00:48:33;;;;;;;5.95;4.72;;;;;;;18.36;53.01;96635.13;13270274;22;20342;-46
2022/12/05 00:53:54;;;;;;;5.47;4.43;;;;;;;18.34;53.03;96639.28;13248749;22;20036;-46
2022/12/05 00:59:18;;;;;;;6.72;5.00;;;;;;;18.36;53.08;96645.13;13224740;22;20341;-48
2022/12/05 01:04:37;;;;;;;5.53;4.50;;;;;;;18.33;52.95;96630.41;13248595;22;20010;-45
2022/12/05 01:09:57;;;;;;;5.75;4.38;;;;;;;18.31;53.04;96635.31;13247675;22;20022;-46
2022/12/05 01:15:16;;;;;;;6.07;4.85;;;;;;;18.31;52.98;96629.94;13269104;22;20018;-48
2022/12/05 01:20:39;;;;;;;5.65;4.55;;;;;;;18.30;53.05;96639.13;13247563;22;20025;-47
2022/12/05 01:25:58;;;;;;;5.70;4.47;;;;;;;18.29;52.94;96629.47;13247846;22;20059;-45
2022/12/05 01:31:25;;;;;;;5.13;4.53;;;;;;;18.29;52.91;96645.63;13269399;22;20059;-47
2022/12/05 01:36:45;;;;;;;5.47;4.50;;;;;;;18.28;52.84;96648.63;13247185;22;20022;-47
2022/12/05 01:42:04;;;;;;;6.00;4.70;;;;;;;18.27;52.84;96647.84;13247582;22;20017;-47
2022/12/05 01:47:26;;;;;;;5.80;4.43;;;;;;;18.27;52.84;96647.03;13247792;22;20014;-46
2022/12/05 01:52:46;;;;;;;5.28;4.50;;;;;;;18.24;52.84;96648.47;13247554;22;20014;-45
2022/12/05 01:58:06;;;;;;;5.32;4.18;;;;;;;18.25;52.86;96643.88;13246943;22;20018;-45
2022/12/05 02:03:25;;;;;;;6.00;4.75;;;;;;;18.24;52.69;96647.69;13246766;22;20445;-45
2022/12/05 02:08:46;;;;;;;6.07;4.13;;;;;;;18.23;52.69;96646.91;13246846;22;20029;-47
2022/12/05 02:14:29;;;;;;;4.82;3.95;;;;;;;18.22;52.87;96644.53;13223497;22;20014;-48
2022/12/05 02:20:09;;;;;;;4.38;3.80;;;;;;;18.21;52.71;96649.13;13268797;22;20376;-46
2022/12/05 02:25:47;;;;;;;4.93;3.92;;;;;;;18.21;52.66;96648.31;13247008;22;20060;-46
2022/12/05 02:31:17;;;;;;;5.20;4.67;;;;;;;18.19;52.83;96656.75;13268764;22;20438;-46
2022/12/05 02:36:51;;;;;;;4.97;4.05;;;;;;;18.18;52.71;96660.53;13223463;22;20266;-45
2022/12/05 02:42:22;;;;;;;5.68;3.85;;;;;;;18.17;52.63;96664.38;13223231;22;20018;-48
2022/12/05 02:47:50;;;;;;;4.40;4.00;;;;;;;18.17;52.58;96670.53;13246897;22;20018;-46
2022/12/05 02:53:12;;;;;;;4.10;3.70;;;;;;;18.15;52.53;96667.38;13246388;22;20044;-48
2022/12/05 02:58:39;;;;;;;4.90;3.78;;;;;;;18.14;52.58;96673.06;13223394;22;20025;-45
2022/12/05 03:04:00;;;;;;;4.20;3.75;;;;;;;18.15;52.65;96680.03;13246706;22;20014;-47
2022/12/05 03:09:37;;;;;;;4.55;3.60;;;;;;;18.12;52.46;96684.16;13246335;22;20060;-47
2022/12/05 03:15:09;;;;;;;6.00;4.05;;;;;;;18.12;52.50;96689.56;13246846;22;20056;-45
2022/12/05 03:20:36;;;;;;;3.60;3.30;;;;;;;18.11;52.53;96692.56;13223080;22;20022;-45
2022/12/05 03:26:10;;;;;;;4.97;3.60;;;;;;;18.11;52.49;96689.88;13268064;22;20014;-44
2022/12/05 03:31:38;;;;;;;3.88;3.33;;;;;;;18.10;52.48;96680.22;13223386;22;20018;-43
2022/12/05 03:37:04;;;;;;;4.10;3.60;;;;;;;18.09;52.33;96679.44;13223805;22;20018;-47
2022/12/05 03:42:31;;;;;;;3.90;3.20;;;;;;;18.08;52.43;96666.25;13226586;22;20351;-46
2022/12/05 03:48:06;;;;;;;4.63;3.47;;;;;;;18.07;52.34;96680.84;13248822;22;20018;-45
2022/12/05 03:53:34;;;;;;;4.20;3.53;;;;;;;18.06;52.43;96685.44;13271547;22;20071;-47
2022/12/05 03:58:56;;;;;;;;;;;;;;;18.07;52.30;96691.63;13226266;22;20028;-47
2022/12/05 04:04:21;;;;;;;3.90;3.38;;;;;;;18.05;52.40;96685.75;13248234;22;20211;-46
2022/12/05 04:09:45;;;;;;;3.55;2.97;;;;;;;18.04;52.48;96684.19;13247339;22;20009;-46
2022/12/05 04:15:07;;;;;;;4.20;3.05;;;;;;;18.04;52.32;96689.56;13249935;22;20033;-46
2022/12/05 04:26:23;;;;;;;4.15;3.17;;;;;;;18.02;52.31;96694.50;13248987;22;20021;-47
2022/12/05 04:31:47;;;;;;;3.75;3.20;;;;;;;18.02;52.24;96699.88;13225675;22;20049;-48
2022/12/05 04:37:12;;;;;;;3.60;3.10;;;;;;;18.01;52.48;96696.38;13224800;22;20022;-47
2022/12/05 04:42:33;;;;;;;3.85;3.50;;;;;;;17.98;52.41;96705.88;13225386;22;20058;-46
2022/12/05 04:47:57;;;;;;;3.03;2.80;;;;;;;18.00;52.29;96712.88;13225230;22;20025;-46
2022/12/05 04:53:17;;;;;;;3.95;3.08;;;;;;;17.98;52.42;96705.88;13225204;22;20014;-47
2022/12/05 04:58:37;;;;;;;3.53;2.95;;;;;;;17.98;52.33;96702.41;13246565;22;20035;-45
2022/12/05 05:04:06;;;;;;;3.15;2.85;;;;;;;17.97;52.56;96704.31;13224215;22;20055;-47
2022/12/05 05:09:26;;;;;;;3.75;3.15;;;;;;;17.95;52.51;96711.94;13224091;22;20461;-45
2022/12/05 05:14:45;;;;;;;3.15;2.83;;;;;;;17.95;52.59;96720.03;13248354;22;20010;-47
2022/12/05 05:20:24;;;;;;;3.13;2.80;;;;;;;17.94;52.42;96710.34;13247542;22;20446;-46
2022/12/05 05:25:43;;;;;;;3.30;3.00;;;;;;;17.94;52.66;96731.09;13247412;22;20014;-47
2022/12/05 05:31:03;;;;;;;3.00;2.67;;;;;;;17.94;52.38;96749.97;13248532;22;20018;-47
2022/12/05 05:36:25;;;;;;;3.20;2.90;;;;;;;17.92;52.61;96758.38;13248042;22;20033;-45
2022/12/05 05:41:44;;;;;;;2.95;2.70;;;;;;;17.92;52.45;96763.75;13246647;22;20018;-47
2022/12/05 05:47:04;;;;;;;3.42;2.70;;;;;;;17.92;52.47;96766.44;13247416;22;20021;-45
2022/12/05 05:52:23;;;;;;;3.28;2.70;;;;;;;17.93;52.52;96765.34;13246920;22;20021;-46
2022/12/05 05:57:43;;;;;;;12.23;3.97;;;;;;;17.94;52.76;96758.84;13268842;22;20010;-46
2022/12/05 06:03:02;;;;;;;20.00;5.50;;;;;;;17.97;52.59;96768.19;13247457;22;20017;-46
2022/12/05 06:08:21;;;;;;;11.43;5.25;;;;;;;17.97;52.88;96782.50;13247154;22;20067;-45
2022/12/05 06:13:41;;;;;;;14.50;4.97;;;;;;;17.97;52.98;96779.78;13247836;22;20014;-45
2022/12/05 06:19:00;;;;;;;11.02;4.60;;;;;;;18.01;52.98;96789.94;13247394;22;20021;-45
2022/12/05 06:24:20;;;;;;;13.55;4.70;;;;;;;18.03;53.06;96803.88;13247119;22;20107;-47
2022/12/05 06:29:39;;;;;;;10.52;4.30;;;;;;;18.04;52.96;96805.50;13247544;22;20375;-46
2022/12/05 06:34:59;;;;;;;9.57;4.20;;;;;;;18.06;52.90;96814.06;13247146;22;20014;-45
2022/12/05 06:40:21;;;;;;;10.60;4.40;;;;;;;18.08;52.90;96811.84;13246951;22;20018;-46
2022/12/05 06:45:41;;;;;;;12.77;4.00;;;;;;;18.09;52.96;96816.09;13246189;22;20017;-47
2022/12/05 06:51:00;;;;;;;10.15;3.55;;;;;;;18.12;53.00;96818.97;13246683;22;20017;-45
2022/12/05 06:56:20;;;;;;;12.68;4.43;;;;;;;18.13;53.01;96822.47;13246744;22;20017;-47
2022/12/05 07:01:40;;;;;;;9.07;4.03;;;;;;;18.15;53.15;96831.03;13247020;22;20018;-46
2022/12/05 07:07:02;;;;;;;9.00;4.28;;;;;;;18.19;53.10;96829.31;13246245;22;20022;-46
2022/12/05 07:12:22;;;;;;;8.60;3.97;;;;;;;18.20;53.11;96825.50;13270260;22;20014;-45
2022/12/05 07:17:41;;;;;;;8.30;4.28;;;;;;;18.22;53.17;96833.28;13272219;22;20397;-48
2022/12/05 07:23:00;;;;;;;8.23;3.95;;;;;;;18.25;53.17;96838.84;13272090;22;20014;-45
2022/12/05 07:28:20;;;;;;;8.00;4.20;;;;;;;18.26;53.31;96840.41;13250486;22;20017;-44
2022/12/05 07:33:40;;;;;;;9.57;4.28;;;;;;;18.28;53.25;96838.19;13250668;22;20013;-45
2022/12/05 07:39:00;;;;;;;8.15;4.20;;;;;;;18.31;53.41;96851.06;13250334;22;20017;-48
2022/12/05 07:44:19;;;;;;;6.95;3.65;;;;;;;18.33;53.27;96850.75;13249894;22;20082;-46
2022/12/05 07:49:39;;;;;;;6.80;3.70;;;;;;;18.35;53.44;96853.94;13249756;22;20411;-46
2022/12/05 07:54:58;;;;;;;6.07;3.47;;;;;;;18.38;53.51;96866.78;13249206;22;20025;-48
2022/12/05 08:00:18;;;;;;;9.50;4.28;;;;;;;18.41;53.44;96862.66;13271428;22;20014;-45
2022/12/05 08:05:37;;;;;;;7.10;3.80;;;;;;;18.44;53.28;96872.81;13248766;22;20517;-48
2022/12/05 08:11:02;;;;;;;6.25;3.25;;;;;;;18.44;52.85;96883.59;13248850;22;20025;-45
2022/12/05 08:16:25;;;;;;;7.53;3.33;;;;;;;18.46;52.57;96887.56;13270844;22;20013;-47
2022/12/05 08:21:45;;;;;;;5.72;3.40;;;;;;;18.48;52.64;96892.66;13249225;22;20022;-46
2022/12/05 08:27:04;;;;;;;5.90;3.60;;;;;;;18.52;52.55;96904.41;13249523;22;20018;-45
2022/12/05 08:32:24;;;;;;;5.35;3.30;;;;;;;18.54;52.26;96910.28;13248312;22;20018;-48
2022/12/05 08:37:43;;;;;;;6.35;3.28;;;;;;;18.57;52.32;96920.44;13248365;22;20196;-49
2022/12/05 08:43:02;;;;;;;5.30;3.25;;;;;;;18.60;52.20;96919.03;13248177;22;20017;-44
2022/12/05 08:48:22;;;;;;;3.90;3.20;;;;;;;18.61;52.11;96921.41;13248730;22;20017;-45
2022/12/05 08:53:42;;;;;;;5.75;3.42;;;;;;;18.63;51.96;96938.06;13248641;22;20014;-44
2022/12/05 08:59:02;;;;;;;5.47;3.00;;;;;;;18.65;52.01;96937.78;13246348;22;20342;-45
2022/12/05 09:04:22;;;;;;;4.22;2.88;;;;;;;18.68;51.99;96934.44;13269598;22;20342;-47
2022/12/05 09:09:41;;;;;;;4.55;3.25;;;;;;;18.70;51.89;96934.91;13247719;22;20018;-46
2022/12/05 09:15:00;;;;;;;4.15;2.95;;;;;;;18.72;51.96;96941.59;13248382;22;20010;-47
2022/12/05 09:20:20;;;;;;;6.75;3.25;;;;;;;18.73;51.79;96951.25;13248281;22;20014;-47
2022/12/05 09:25:39;;;;;;;4.97;3.08;;;;;;;18.75;51.65;96951.75;13269410;22;20014;-46
2022/12/05 09:31:00;;;;;;;3.55;2.53;;;;;;;18.77;51.70;96965.72;13269678;22;20009;-47
2022/12/05 09:36:22;;;;;;;4.05;2.83;;;;;;;18.81;51.72;96963.22;13247502;22;20010;-45
2022/12/05 09:42:04;;;;;;;5.03;2.97;;;;;;;18.83;51.60;96969.09;13223945;22;20021;-46
2022/12/05 09:47:26;;;;;;;4.18;2.83;;;;;;;18.84;51.61;96964.50;13247954;22;20033;-47
2022/12/05 09:52:58;;;;;;;4.13;2.80;;;;;;;18.87;51.47;96977.38;13246693;22;20020;-47
2022/12/05 09:58:39;;;;;;;5.13;3.08;;;;;;;18.87;51.44;96958.47;13269031;22;20066;-47
2022/12/05 10:04:02;;;;;;;3.80;2.80;;;;;;;18.88;51.40;96962.78;13244812;22;20460;-46
2022/12/05 10:09:51;;;;;;;3.05;2.50;;;;;;;18.90;51.26;96961.34;13268850;22;20009;-44
2022/12/05 10:15:29;;;;;;;3.42;2.50;;;;;;;18.90;51.35;96945.13;13247005;22;20034;-47
2022/12/05 10:20:54;;;;;;;3.33;2.55;;;;;;;18.91;51.35;96948.63;13246918;22;20014;-46
2022/12/05 10:26:15;;;;;;;4.20;3.70;;;;;;;18.90;49.81;96955.16;13245829;22;20045;-45
2022/12/05 10:31:36;;;;;;;4.68;2.85;;;;;;;18.92;50.42;96939.44;13246423;22;20014;-46
2022/12/05 10:37:18;;;;;;;3.85;2.80;;;;;;;18.91;50.55;96945.94;13268499;22;20033;-45
2022/12/05 10:42:38;;;;;;;4.68;2.85;;;;;;;18.91;50.62;96948.63;13223123;22;20376;-47
2022/12/05 10:47:57;;;;;;;3.22;2.60;;;;;;;18.92;50.50;96947.53;13250630;22;20013;-47
2022/12/05 10:53:23;;;;;;;3.30;2.50;;;;;;;18.93;50.56;96943.72;13272398;22;20433;-46
2022/12/05 10:58:55;;;;;;;4.00;2.50;;;;;;;18.92;50.57;96942.13;13227404;22;20018;-45
2022/12/05 11:04:17;;;;;;;2.95;2.50;;;;;;;18.92;50.61;96920.53;13272341;22;20025;-47
2022/12/05 11:09:37;;;;;;;3.65;2.90;;;;;;;18.91;49.94;96925.13;13250251;22;20017;-46
2022/12/05 11:15:18;;;;;;;4.05;2.80;;;;;;;18.91;50.08;96929.72;13250376;22;20010;-45
2022/12/05 11:20:38;;;;;;;3.17;2.50;;;;;;;18.91;50.30;96913.53;13250440;22;20029;-47
2022/12/05 11:25:58;;;;;;;2.70;2.25;;;;;;;18.90;50.21;96918.16;13250261;22;20028;-47
2022/12/05 11:31:24;;;;;;;2.70;2.50;;;;;;;18.91;50.24;96908.13;13250476;22;20028;-47
2022/12/05 11:36:49;;;;;;;2.95;2.60;;;;;;;18.89;50.25;96903.03;13249579;22;20018;-47
2022/12/05 11:42:21;;;;;;;3.25;2.58;;;;;;;18.90;50.28;96898.47;13247792;22;20025;-47
2022/12/05 11:47:59;;;;;;;2.97;2.60;;;;;;;18.89;50.46;96904.97;13226940;22;20018;-46
2022/12/05 11:53:56;;;;;;;2.97;2.25;;;;;;;18.89;50.35;96904.97;13249575;22;20044;-47
2022/12/05 11:59:15;;;;;;;3.28;2.38;;;;;;;18.88;50.43;96887.97;13249282;22;20093;-45
2022/12/05 12:04:50;;;;;;;3.25;2.38;;;;;;;18.87;50.44;96889.06;13249456;22;20018;-45
2022/12/05 12:10:25;;;;;;;2.60;2.25;;;;;;;18.87;50.46;96886.38;13249179;22;20030;-48
2022/12/05 12:16:14;;;;;;;2.80;2.42;;;;;;;18.86;50.41;96892.13;13271354;22;20029;-46
2022/12/05 12:21:50;;;;;;;3.05;2.13;;;;;;;18.85;50.47;96899.41;13271168;22;20385;-45
2022/12/05 12:27:20;;;;;;;3.58;2.30;;;;;;;18.83;50.56;96885.44;13225843;22;20018;-45
2022/12/05 12:33:02;;;;;;;3.72;2.20;;;;;;;18.84;50.53;96897.03;13247106;22;20014;-47
2022/12/05 12:38:51;;;;;;;2.80;2.42;;;;;;;18.82;50.70;96893.84;13224599;22;20010;-48
2022/12/05 12:44:19;;;;;;;;;;;;;;;18.82;50.68;96899.22;13249184;22;20010;-47
2022/12/05 12:50:20;;;;;;;2.80;2.10;;;;;;;18.81;50.81;96906.53;13270108;22;20390;-47
2022/12/05 12:55:45;;;;;;;2.95;2.30;;;;;;;18.81;50.76;96897.66;13092386;22;20018;-46
2022/12/05 13:01:36;;;;;;;2.63;2.30;;;;;;;18.78;50.72;96883.66;13225093;22;20018;-45
2022/12/05 13:07:12;;;;;;;2.67;2.30;;;;;;;18.78;50.68;96880.97;13247911;22;20021;-47
2022/12/05 13:12:36;;;;;;;3.35;2.20;;;;;;;18.77;50.72;96887.44;13248192;22;20014;-48
2022/12/05 13:17:56;;;;;;;2.33;2.10;;;;;;;18.76;51.07;96888.56;13248273;22;20032;-48
2022/12/05 13:23:18;;;;;;;2.15;1.92;;;;;;;18.76;50.95;96906.69;13224630;22;20018;-46
2022/12/05 13:28:46;;;;;;;23.40;7.35;;;;;;;18.75;51.15;96900.47;13224584;22;20013;-47
2022/12/05 13:34:28;;;;;;;42.28;15.75;;;;;;;18.74;51.86;96907.00;13245778;22;20018;-48
2022/12/05 13:45:32;;;;;;;25.48;10.10;;;;;;;18.74;52.69;96915.09;13247173;22;20013;-46
2022/12/05 13:50:59;;;;;;;21.65;8.75;;;;;;;18.74;52.57;96914.31;13247554;22;20025;-49
2022/12/05 13:56:19;;;;;;;20.13;8.27;;;;;;;18.72;52.71;96914.59;13247326;22;20014;-46
2022/12/05 14:01:45;;;;;;;19.83;7.45;;;;;;;18.71;52.63;96915.72;13247343;22;20018;-47
2022/12/05 14:07:07;;;;;;;18.88;6.97;;;;;;;18.72;52.46;96917.31;13247094;22;20026;-49
2022/12/05 14:12:44;;;;;;;16.52;6.45;;;;;;;18.69;52.56;96923.31;13223473;22;20014;-48
2022/12/05 14:18:37;;;;;;;17.52;6.32;;;;;;;18.68;52.26;96913.66;13223564;22;20082;-46
2022/12/05 14:24:31;;;;;;;16.42;5.32;;;;;;;18.67;52.38;96911.25;13268577;22;20017;-50
2022/12/05 14:30:23;;;;;;;16.08;5.50;;;;;;;18.66;52.20;96918.56;13247042;22;20014;-46
2022/12/05 14:35:49;;;;;;;12.15;4.50;;;;;;;18.65;52.08;96908.09;13246829;22;20014;-47
2022/12/05 14:41:27;;;;;;;12.30;5.00;;;;;;;18.64;52.07;96915.41;13246677;22;20018;-48
2022/12/05 14:46:47;;;;;;;8.93;4.05;;;;;;;18.63;52.05;96921.88;13222703;22;20070;-47
2022/12/05 14:52:10;;;;;;;9.43;4.10;;;;;;;18.63;52.02;96913.78;13246675;22;20074;-47
2022/12/05 14:57:32;;;;;;;9.40;4.13;;;;;;;18.62;52.02;96912.22;13246552;22;20018;-49
2022/12/05 15:02:54;;;;;;;10.20;3.80;;;;;;;18.60;52.11;96925.19;13222154;22;20465;-46
2022/12/05 15:08:14;;;;;;;11.05;8.48;;;;;;;18.33;43.21;96916.28;13245740;22;20022;-48
2022/12/05 15:13:33;;;;;;;7.07;5.63;;;;;;;18.11;44.74;96922.53;13246611;22;20013;-47
2022/12/05 15:18:58;;;;;;;8.65;4.97;;;;;;;18.24;47.98;96918.13;13246608;22;20063;-48
2022/12/05 15:24:18;;;;;;;8.10;5.50;;;;;;;18.33;48.53;96929.75;13221891;22;20010;-49
2022/12/05 15:29:39;;;;;;;8.63;5.22;;;;;;;18.36;48.22;96921.03;13246593;22;20110;-48
2022/12/05 15:35:03;;;;;;;9.63;4.95;;;;;;;18.40;48.48;96934.69;13250017;22;20010;-50
2022/12/05 15:40:25;;;;;;;10.23;5.10;;;;;;;18.42;48.62;96934.38;13249668;22;20028;-47
2022/12/05 15:45:44;;;;;;;7.78;4.45;;;;;;;18.43;48.65;96925.97;13271524;22;20020;-48
2022/12/05 15:51:04;;;;;;;7.90;4.85;;;;;;;18.44;48.91;96930.25;13250153;22;20089;-46
2022/12/05 15:56:32;;;;;;;6.20;4.30;;;;;;;18.45;49.09;96925.66;13250010;22;20014;-49
2022/12/05 16:02:02;;;;;;;6.40;4.67;;;;;;;18.46;49.01;96921.84;13226259;22;20033;-47
2022/12/05 16:07:23;;;;;;;6.20;4.30;;;;;;;18.47;49.19;96936.94;13225391;22;20097;-47
2022/12/05 16:12:43;;;;;;;6.38;4.05;;;;;;;18.47;49.25;96932.34;13271035;22;20037;-49
2022/12/05 16:18:04;;;;;;;4.88;3.88;;;;;;;18.49;49.42;96919.31;13248590;22;20461;-49
2022/12/05 16:23:28;;;;;;;5.20;3.95;;;;;;;18.51;49.48;96913.63;13247632;22;20066;-51
2022/12/05 16:29:01;;;;;;;5.40;4.28;;;;;;;18.52;49.44;96917.88;13249445;22;20014;-46
2022/12/05 16:34:20;;;;;;;5.95;4.05;;;;;;;18.52;49.60;96931.38;13249584;22;20021;-50
2022/12/05 16:39:43;;;;;;;5.45;3.92;;;;;;;18.54;49.75;96939.94;13225779;22;20021;-47
2022/12/05 16:45:03;;;;;;;5.50;4.00;;;;;;;18.54;49.75;96934.56;13225341;22;20474;-48
2022/12/05 16:50:23;;;;;;;4.57;3.80;;;;;;;18.55;49.65;96934.25;13248476;22;20445;-48
2022/12/05 16:55:43;;;;;;;4.60;3.45;;;;;;;18.57;49.64;96937.44;13248859;22;20014;-49
2022/12/05 17:01:04;;;;;;;4.53;3.50;;;;;;;18.58;49.79;96924.72;13224983;22;20024;-49
2022/12/05 17:06:25;;;;;;;4.88;3.72;;;;;;;18.62;49.80;96922.19;13269616;22;20056;-50
2022/12/05 17:11:45;;;;;;;3.90;3.45;;;;;;;18.62;49.69;96914.91;13248965;22;20017;-50
2022/12/05 17:17:11;;;;;;;4.45;3.78;;;;;;;18.64;49.72;96928.88;13269656;22;20421;-49
2022/12/05 17:22:30;;;;;;;4.63;3.85;;;;;;;18.66;49.73;96928.56;13248044;22;20023;-47
2022/12/05 17:27:50;;;;;;;4.00;3.60;;;;;;;18.66;49.94;96928.56;13247175;22;20454;-48
2022/12/05 17:33:12;;;;;;;4.18;3.70;;;;;;;18.66;49.88;96933.94;13248236;22;20020;-49
2022/12/05 17:38:31;;;;;;;4.18;3.65;;;;;;;18.67;49.90;96941.72;13247270;22;20025;-48
2022/12/05 17:43:51;;;;;;;3.70;3.35;;;;;;;18.68;50.00;96935.25;13248070;22;20067;-48
2022/12/05 17:49:15;;;;;;;3.50;3.20;;;;;;;18.70;49.96;96937.59;13247781;22;20018;-48
2022/12/05 17:54:35;;;;;;;4.07;3.60;;;;;;;18.67;48.59;96941.72;13247224;22;20033;-48
2022/12/05 17:59:54;;;;;;;4.38;3.95;;;;;;;18.69;49.22;96933.34;13246986;22;20029;-49
2022/12/05 18:05:15;;;;;;;4.80;3.67;;;;;;;18.70;49.25;96929.50;13268759;22;20018;-46
2022/12/05 18:10:35;;;;;;;4.28;3.88;;;;;;;18.72;49.41;96925.41;13246333;22;20051;-46
2022/12/05 18:15:56;;;;;;;5.00;3.83;;;;;;;18.75;49.31;96930.16;13268730;22;20074;-47
2022/12/05 18:21:16;;;;;;;3.88;3.42;;;;;;;18.76;49.42;96928.28;13268770;22;20063;-46
2022/12/05 18:26:35;;;;;;;4.47;3.55;;;;;;;18.77;49.30;96925.22;13246941;22;20055;-46
2022/12/05 18:31:54;;;;;;;9.30;7.43;;;;;;;18.73;47.08;96939.69;13245914;22;20051;-47
2022/12/05 18:37:15;;;;;;;6.13;4.65;;;;;;;18.71;47.58;96937.28;13245992;22;20022;-47
2022/12/05 18:42:35;;;;;;;6.80;5.15;;;;;;;18.73;48.26;96926.97;13245792;22;20345;-45
2022/12/05 18:47:54;;;;;;;11.48;6.80;;;;;;;18.75;48.93;96913.19;13246584;22;20018;-50
2022/12/05 18:53:16;;;;;;;20.70;10.32;;;;;;;18.77;49.21;96914.44;13245575;22;20018;-46
2022/12/05 18:58:36;;;;;;;18.27;9.30;;;;;;;18.80;50.58;96925.75;13246385;22;20330;-49
2022/12/05 19:03:57;;;;;;;18.13;9.27;;;;;;;18.83;51.54;96923.22;13246421;22;20013;-48
2022/12/05 19:09:18;;;;;;;12.10;8.35;;;;;;;18.86;52.08;96922.59;13250249;22;20022;-46
2022/12/05 19:14:37;;;;;;;14.13;8.65;;;;;;;18.87;52.70;96907.19;13251255;22;20021;-48
2022/12/05 19:19:57;;;;;;;12.65;7.82;;;;;;;18.88;52.89;96919.59;13249729;22;20018;-49
2022/12/05 19:25:17;;;;;;;12.38;7.72;;;;;;;18.88;53.09;96908.78;13271151;22;20010;-49
2022/12/05 19:30:36;;;;;;;12.63;7.50;;;;;;;18.88;53.15;96903.38;13266654;22;20028;-49
2022/12/05 19:35:55;;;;;;;9.43;6.88;;;;;;;18.88;53.09;96898.00;13223805;22;20017;-46
2022/12/05 19:41:18;;;;;;;10.52;6.65;;;;;;;18.88;52.99;96895.28;13249740;22;20018;-46
2022/12/05 19:46:37;;;;;;;11.98;6.70;;;;;;;18.90;53.41;96895.75;13226088;22;20014;-47
2022/12/05 19:51:57;;;;;;;8.95;6.07;;;;;;;18.91;53.12;96908.91;13271111;22;20014;-45
2022/12/05 19:57:17;;;;;;;11.02;6.13;;;;;;;18.91;53.24;96906.22;13270781;22;20013;-45
2022/12/05 20:02:36;;;;;;;13.32;6.40;;;;;;;18.92;53.36;96905.13;13249308;22;20010;-48
2022/12/05 20:07:55;;;;;;;10.05;5.22;;;;;;;18.94;53.30;96915.63;13248991;22;20018;-49
2022/12/05 20:13:15;;;;;;;17.10;6.63;;;;;;;18.97;53.19;96912.25;13271009;22;20074;-47
2022/12/05 20:18:36;;;;;;;11.80;6.28;;;;;;;18.99;52.92;96901.16;13248772;22;20088;-51
2022/12/05 20:23:58;;;;;;;19.65;6.70;;;;;;;18.99;52.86;96901.94;13249074;22;20017;-46
2022/12/05 20:29:17;;;;;;;22.75;7.10;;;;;;;19.00;52.86;96900.06;13248941;22;20014;-49
2022/12/05 20:34:36;;;;;;;15.25;7.03;;;;;;;19.01;52.72;96893.53;13270201;22;20014;-48
2022/12/05 20:39:56;;;;;;;14.93;6.97;;;;;;;19.02;52.72;96881.63;13270169;22;20132;-51
2022/12/05 20:45:15;;;;;;;17.63;7.22;;;;;;;19.02;52.68;96866.22;13270299;22;20446;-49
2022/12/05 20:50:34;;;;;;;14.85;6.72;;;;;;;19.04;52.63;96869.38;13248399;22;20025;-47
2022/12/05 20:56:01;;;;;;;14.68;6.78;;;;;;;19.06;52.71;96872.56;13247567;22;20018;-48
2022/12/05 21:01:22;;;;;;;13.45;7.15;;;;;;;19.06;52.60;96866.38;13247793;22;20014;-49
2022/12/05 21:06:44;;;;;;;14.98;6.85;;;;;;;19.08;52.61;96859.53;13245850;22;20729;-49
2022/12/05 21:12:04;;;;;;;13.10;6.40;;;;;;;19.08;52.57;96856.84;13246830;22;20022;-51
2022/12/05 21:17:24;;;;;;;18.63;8.00;;;;;;;19.09;52.72;96847.63;13247863;22;20024;-47
2022/12/05 21:22:43;;;;;;;15.85;6.95;;;;;;;19.09;52.76;96849.53;13248006;22;20021;-51
2022/12/05 21:28:03;;;;;;;16.80;7.35;;;;;;;19.09;52.61;96849.53;13268343;22;20066;-47
2022/12/05 21:33:22;;;;;;;12.75;6.03;;;;;;;19.10;52.68;96851.91;13247233;22;20017;-49
2022/12/05 21:38:41;;;;;;;15.02;6.53;;;;;;;19.10;52.50;96854.59;13268728;22;20434;-48
2022/12/05 21:44:01;;;;;;;12.27;6.30;;;;;;;19.10;52.54;96845.72;13245750;22;20464;-47
2022/12/05 21:49:21;;;;;;;10.70;6.45;;;;;;;19.11;52.53;96847.28;13247399;22;20018;-47
2022/12/05 21:54:40;;;;;;;16.77;6.13;;;;;;;19.11;52.36;96850.00;13268706;22;20014;-47
2022/12/05 21:59:59;;;;;;;14.02;5.75;;;;;;;19.10;52.32;96846.50;13247151;22;20018;-47
2022/12/05 22:05:19;;;;;;;11.60;6.53;;;;;;;19.10;52.18;96838.41;13246294;22;20295;-49
2022/12/05 22:10:38;;;;;;;12.75;5.88;;;;;;;19.11;52.22;96839.19;13268420;22;20017;-48
2022/12/05 22:15:58;;;;;;;10.63;5.47;;;;;;;19.09;52.13;96826.03;13268253;22;20015;-50
2022/12/05 22:21:19;;;;;;;9.48;5.75;;;;;;;19.09;52.18;96801.72;13247231;22;20018;-50
2022/12/05 22:26:39;;;;;;;9.27;5.38;;;;;;;19.07;52.18;96782.38;13246785;22;20021;-49
2022/12/05 22:31:58;;;;;;;10.20;5.90;;;;;;;19.08;52.06;96802.84;13247107;22;20013;-47
2022/12/05 22:37:17;;;;;;;10.68;5.57;;;;;;;19.08;51.98;96816.34;13246600;22;20010;-48
2022/12/05 22:42:37;;;;;;;9.20;5.30;;;;;;;19.08;51.97;96815.53;13248325;22;20022;-47
2022/12/05 22:47:56;;;;;;;10.40;5.40;;;;;;;19.08;52.24;96820.94;13272679;22;20319;-47
2022/12/05 22:53:21;;;;;;;8.52;5.38;;;;;;;19.07;52.20;96813.94;13251316;22;20314;-48
2022/12/05 22:58:41;;;;;;;10.30;4.95;;;;;;;19.05;52.09;96806.19;13250390;22;20035;-48
2022/12/05 23:04:03;;;;;;;7.93;5.18;;;;;;;19.05;52.11;96798.09;13271840;22;20319;-47
2022/12/05 23:09:23;;;;;;;9.40;5.03;;;;;;;19.04;51.96;96793.78;13249969;22;20021;-47
2022/12/05 23:14:42;;;;;;;9.18;5.30;;;;;;;19.03;52.03;96792.19;13250622;22;20014;-47
2022/12/05 23:20:02;;;;;;;9.45;5.00;;;;;;;19.03;51.86;96767.09;13250463;22;20014;-47
2022/12/05 23:25:22;;;;;;;8.20;4.70;;;;;;;19.02;51.92;96754.75;13272010;22;20311;-47
2022/12/05 23:30:41;;;;;;;7.20;4.85;;;;;;;19.01;51.86;96753.91;13272131;22;20010;-49
2022/12/05 23:36:01;;;;;;;7.63;4.55;;;;;;;19.01;51.86;96747.75;13250420;22;20009;-47
2022/12/05 23:41:22;;;;;;;6.88;4.60;;;;;;;19.00;51.74;96751.56;13250010;22;20018;-48
2022/12/05 23:46:42;;;;;;;7.40;4.55;;;;;;;18.99;51.88;96756.16;13250181;22;20029;-48
2022/12/05 23:52:02;;;;;;;8.02;4.85;;;;;;;18.98;51.89;96754.59;13248249;22;20018;-49
2022/12/05 23:57:21;;;;;;;8.95;5.00;;;;;;;18.96;51.78;96757.59;13249876;22;20010;-47
